Time;durP1;ratioP1;P1;durP2;ratioP2;P2;SDS_P1;SDS_P2;PMS_P1;PMS_P2;Temp;Humidity;BMP_temperature;BMP_pressure;BME280_temperature;BME280_humidity;BME280_pressure;Samples;Min_cycle;Max_cycle;Signal;HPM_P1;HPM_P2
2022/02/26 00:00:58;;;;;;;10.23;2.80;;;2.30;99.90;;;;;;5033446;28;20026;-76
2022/02/26 00:03:24;;;;;;;10.52;2.53;;;2.20;99.90;;;;;;5032591;28;20083;-76
2022/02/26 00:05:49;;;;;;;6.40;2.08;;;2.10;99.90;;;;;;5031705;28;20118;-76
2022/02/26 00:08:16;;;;;;;14.48;2.80;;;2.10;99.90;;;;;;5033002;28;20036;-75
2022/02/26 00:10:41;;;;;;;9.60;3.25;;;2.00;99.90;;;;;;5032857;28;20041;-75
2022/02/26 00:13:07;;;;;;;11.10;3.50;;;2.00;99.90;;;;;;5033414;28;20117;-76
2022/02/26 00:15:33;;;;;;;7.57;2.80;;;1.90;99.90;;;;;;5032373;28;20434;-75
2022/02/26 00:17:58;;;;;;;9.68;3.35;;;2.00;99.90;;;;;;5034406;28;20041;-75
2022/02/26 00:20:24;;;;;;;8.88;2.67;;;2.00;99.90;;;;;;5035494;28;20044;-76
2022/02/26 00:22:50;;;;;;;10.90;3.97;;;2.10;99.90;;;;;;5037886;28;20032;-75
2022/02/26 00:25:15;;;;;;;10.73;3.13;;;2.10;99.90;;;;;;5038636;28;20040;-74
2022/02/26 00:27:41;;;;;;;7.60;2.63;;;2.30;99.90;;;;;;5038440;28;20375;-74
2022/02/26 00:30:07;;;;;;;9.98;3.08;;;2.30;99.90;;;;;;5053667;28;20029;-74
2022/02/26 00:32:33;;;;;;;15.90;2.72;;;2.40;99.90;;;;;;5054192;28;20029;-74
2022/02/26 00:34:59;;;;;;;8.75;2.90;;;2.50;99.90;;;;;;5054697;28;20016;-75
2022/02/26 00:37:24;;;;;;;11.73;3.75;;;2.50;99.90;;;;;;5039062;28;20025;-75
2022/02/26 00:39:50;;;;;;;7.05;2.70;;;2.60;99.90;;;;;;5032747;28;20045;-74
2022/02/26 00:42:15;;;;;;;10.45;2.88;;;2.60;99.90;;;;;;5032375;28;20029;-74
2022/02/26 00:44:41;;;;;;;10.40;2.72;;;2.60;99.90;;;;;;5017621;28;20065;-74
2022/02/26 00:47:08;;;;;;;7.22;2.70;;;2.70;99.90;;;;;;5032107;28;20042;-74
2022/02/26 00:49:50;;;;;;;9.55;2.70;;;2.70;99.90;;;;;;5030589;28;20163;-74
2022/02/26 00:52:22;;;;;;;11.35;2.70;;;2.70;99.90;;;;;;5032267;28;20033;-74
2022/02/26 00:54:48;;;;;;;10.90;3.10;;;2.80;99.90;;;;;;5032536;28;20033;-74
2022/02/26 00:57:15;;;;;;;8.57;2.65;;;2.80;99.90;;;;;;5032171;28;20092;-75
2022/02/26 00:59:41;;;;;;;5.65;2.35;;;2.80;99.90;;;;;;5011452;28;20037;-74
2022/02/26 01:02:07;;;;;;;7.70;2.53;;;2.80;99.90;;;;;;5030200;28;20052;-74
2022/02/26 01:04:34;;;;;;;13.20;2.70;;;2.80;99.90;;;;;;5030694;28;20459;-74
2022/02/26 01:07:00;;;;;;;7.47;3.03;;;2.80;99.90;;;;;;5031117;28;20076;-74
2022/02/26 01:09:25;;;;;;;9.20;3.20;;;2.80;99.90;;;;;;5030933;28;20489;-74
2022/02/26 01:11:51;;;;;;;11.43;3.10;;;2.80;99.90;;;;;;5032101;28;20022;-74
2022/02/26 01:14:17;;;;;;;9.23;2.75;;;2.80;99.90;;;;;;5032069;28;20164;-75
2022/02/26 01:16:43;;;;;;;10.77;2.65;;;2.80;99.90;;;;;;5031492;28;20064;-74
2022/02/26 01:19:08;;;;;;;18.02;3.75;;;2.80;99.90;;;;;;5032069;28;20040;-74
2022/02/26 01:21:34;;;;;;;9.85;3.00;;;2.90;99.90;;;;;;5031113;28;20112;-74
2022/02/26 01:24:00;;;;;;;6.07;2.63;;;2.90;99.90;;;;;;5031887;28;20049;-74
2022/02/26 01:26:26;;;;;;;14.20;3.38;;;2.90;99.90;;;;;;5031563;28;20025;-73
2022/02/26 01:28:52;;;;;;;8.07;2.88;;;2.90;99.90;;;;;;5031922;28;20176;-74
2022/02/26 01:31:19;;;;;;;11.68;3.10;;;2.90;99.90;;;;;;5032222;28;20044;-73
2022/02/26 01:33:45;;;;;;;11.07;2.92;;;2.90;99.90;;;;;;5030972;28;20109;-73
2022/02/26 01:36:11;;;;;;;10.13;3.00;;;2.80;99.90;;;;;;5032253;28;20030;-74
2022/02/26 01:38:37;;;;;;;9.88;2.85;;;2.80;99.90;;;;;;5030856;28;20103;-73
2022/02/26 01:41:04;;;;;;;16.75;3.90;;;2.70;99.90;;;;;;5031879;28;20061;-73
2022/02/26 01:43:32;;;;;;;11.77;2.80;;;2.80;99.90;;;;;;5026736;28;20022;-73
2022/02/26 01:45:58;;;;;;;8.63;3.20;;;2.80;99.90;;;;;;5029391;28;20029;-73
2022/02/26 01:48:23;;;;;;;11.07;3.00;;;2.80;99.90;;;;;;5031064;28;20079;-73
2022/02/26 01:50:49;;;;;;;8.38;3.25;;;2.80;99.90;;;;;;5032132;28;20052;-74
2022/02/26 01:53:15;;;;;;;9.98;3.22;;;2.80;99.90;;;;;;5031457;28;20159;-74
2022/02/26 01:55:41;;;;;;;6.82;2.83;;;2.80;99.90;;;;;;5030229;28;20371;-74
2022/02/26 01:58:06;;;;;;;10.40;3.28;;;2.80;99.90;;;;;;5031658;28;20130;-74
2022/02/26 02:00:32;;;;;;;7.90;2.70;;;2.80;99.90;;;;;;5031487;28;20043;-74
2022/02/26 02:02:58;;;;;;;10.52;2.70;;;2.80;99.90;;;;;;5030634;28;20037;-74
2022/02/26 02:05:29;;;;;;;7.60;2.92;;;2.90;99.90;;;;;;5031547;28;20021;-73
2022/02/26 02:07:55;;;;;;;9.63;3.17;;;2.80;99.90;;;;;;5031595;28;20470;-76
2022/02/26 02:10:21;;;;;;;12.18;3.00;;;2.70;99.90;;;;;;5031788;28;20455;-74
2022/02/26 02:12:47;;;;;;;9.10;2.60;;;2.60;99.90;;;;;;5031226;28;20389;-74
2022/02/26 02:15:13;;;;;;;14.75;4.18;;;2.50;99.90;;;;;;5031566;28;20046;-74
2022/02/26 02:17:41;;;;;;;14.07;3.45;;;2.40;99.90;;;;;;5031847;28;20091;-73
2022/02/26 02:20:07;;;;;;;8.23;2.83;;;2.40;99.90;;;;;;5035154;28;20027;-72
2022/02/26 02:22:33;;;;;;;10.02;3.13;;;2.30;99.90;;;;;;5033351;28;20029;-73
2022/02/26 02:24:59;;;;;;;11.18;3.38;;;2.30;99.90;;;;;;5034981;28;20032;-72
2022/02/26 02:27:24;;;;;;;13.55;3.90;;;2.30;99.90;;;;;;5034521;28;20037;-73
2022/02/26 02:29:50;;;;;;;10.55;3.28;;;2.30;99.90;;;;;;5034983;28;20092;-73
2022/02/26 02:32:15;;;;;;;9.77;3.67;;;2.30;99.90;;;;;;5034565;28;20394;-73
2022/02/26 02:34:41;;;;;;;10.40;3.33;;;2.40;99.90;;;;;;5034284;28;20026;-73
2022/02/26 02:37:11;;;;;;;9.90;3.88;;;2.40;99.90;;;;;;5034929;28;20033;-72
2022/02/26 02:39:41;;;;;;;14.48;3.40;;;2.40;99.90;;;;;;5033869;28;20376;-72
2022/02/26 02:42:07;;;;;;;12.85;3.75;;;2.30;99.90;;;;;;5035119;28;20025;-72
2022/02/26 02:44:33;;;;;;;8.75;3.35;;;2.30;99.90;;;;;;5035021;28;20032;-74
2022/02/26 02:46:58;;;;;;;13.15;3.50;;;2.30;99.90;;;;;;5034824;28;20033;-74
2022/02/26 02:49:24;;;;;;;12.55;4.65;;;2.30;99.90;;;;;;5034282;28;20061;-73
2022/02/26 02:51:49;;;;;;;9.60;3.25;;;2.30;99.90;;;;;;5034736;28;20075;-73
2022/02/26 02:54:15;;;;;;;17.90;3.70;;;2.30;99.90;;;;;;5034409;28;20039;-74
2022/02/26 02:56:41;;;;;;;14.63;4.40;;;2.30;99.90;;;;;;5033659;28;20040;-73
2022/02/26 02:59:06;;;;;;;14.93;4.50;;;2.30;99.90;;;;;;5034279;28;20044;-73
2022/02/26 03:01:32;;;;;;;20.15;5.47;;;2.30;99.90;;;;;;5033579;28;20140;-73
2022/02/26 03:03:58;;;;;;;17.42;4.47;;;2.30;99.90;;;;;;5034523;28;20033;-74
2022/02/26 03:06:25;;;;;;;9.55;4.60;;;2.20;99.90;;;;;;5034450;28;20459;-73
2022/02/26 03:08:51;;;;;;;15.77;4.90;;;2.20;99.90;;;;;;5033913;28;20105;-73
2022/02/26 03:11:19;;;;;;;18.98;4.85;;;2.20;99.90;;;;;;5034298;28;20028;-73
2022/02/26 03:13:45;;;;;;;14.02;4.75;;;2.10;99.90;;;;;;5033753;28;20029;-74
2022/02/26 03:16:11;;;;;;;9.85;5.30;;;2.10;99.90;;;;;;5033929;28;20046;-73
2022/02/26 03:18:37;;;;;;;21.48;6.00;;;2.20;99.90;;;;;;5033322;28;20037;-73
2022/02/26 03:21:03;;;;;;;14.35;5.47;;;2.20;99.90;;;;;;5033848;28;20083;-73
2022/02/26 03:23:28;;;;;;;14.90;5.53;;;2.20;99.90;;;;;;5033470;28;20026;-72
2022/02/26 03:25:54;;;;;;;11.00;5.78;;;2.30;99.90;;;;;;5033661;28;20037;-72
2022/02/26 03:28:20;;;;;;;20.42;5.60;;;2.30;99.90;;;;;;5033889;28;20026;-71
2022/02/26 03:30:45;;;;;;;18.58;6.00;;;2.30;99.90;;;;;;5033117;28;20360;-72
2022/02/26 03:33:11;;;;;;;10.38;5.28;;;2.30;99.90;;;;;;5033893;28;20057;-72
2022/02/26 03:35:39;;;;;;;14.70;5.78;;;2.20;99.90;;;;;;5033485;28;20033;-72
2022/02/26 03:38:05;;;;;;;16.17;5.88;;;2.20;99.90;;;;;;5033698;28;20073;-73
2022/02/26 03:40:31;;;;;;;13.80;5.28;;;2.10;99.90;;;;;;5033106;28;20463;-72
2022/02/26 03:42:57;;;;;;;20.80;6.63;;;2.00;99.90;;;;;;5033443;28;20115;-72
2022/02/26 03:45:23;;;;;;;19.35;5.78;;;2.00;99.90;;;;;;5026152;28;20487;-72
2022/02/26 03:47:49;;;;;;;18.15;5.93;;;1.90;99.90;;;;;;5033203;28;20463;-71
2022/02/26 03:50:14;;;;;;;13.93;5.93;;;1.80;99.90;;;;;;5033915;28;20104;-71
2022/02/26 03:52:40;;;;;;;14.60;6.28;;;1.80;99.90;;;;;;5032814;28;20099;-71
2022/02/26 03:55:08;;;;;;;18.13;6.90;;;1.80;99.90;;;;;;5033330;28;20022;-71
2022/02/26 03:57:34;;;;;;;14.82;6.20;;;1.70;99.90;;;;;;5032875;28;20079;-71
2022/02/26 04:00:01;;;;;;;15.65;7.45;;;1.70;99.90;;;;;;5033509;28;20467;-71
2022/02/26 04:02:27;;;;;;;9.75;5.85;;;1.70;99.90;;;;;;5031824;28;20025;-71
2022/02/26 04:04:53;;;;;;;22.75;6.35;;;1.60;99.90;;;;;;5033378;28;20033;-71
2022/02/26 04:07:19;;;;;;;12.05;6.60;;;1.60;99.90;;;;;;5033281;28;20379;-72
2022/02/26 04:09:44;;;;;;;14.73;6.90;;;1.50;99.90;;;;;;5032394;28;20033;-72
2022/02/26 04:12:10;;;;;;;29.40;7.03;;;1.50;99.90;;;;;;5033187;28;20545;-73
2022/02/26 04:14:36;;;;;;;24.02;7.20;;;1.50;99.90;;;;;;5032002;28;20372;-72
2022/02/26 04:17:01;;;;;;;22.05;6.93;;;1.50;99.90;;;;;;5031834;28;20038;-72
2022/02/26 04:19:27;;;;;;;21.05;6.97;;;1.50;99.90;;;;;;5032242;28;20041;-73
2022/02/26 04:21:53;;;;;;;15.38;6.85;;;1.50;99.90;;;;;;5033355;28;20040;-73
2022/02/26 04:24:19;;;;;;;19.80;6.88;;;1.60;99.90;;;;;;5033284;28;20032;-71
2022/02/26 04:26:45;;;;;;;18.90;6.43;;;1.50;99.90;;;;;;5032007;28;20040;-71
2022/02/26 04:29:11;;;;;;;17.52;6.57;;;1.50;99.90;;;;;;5032632;28;20061;-72
2022/02/26 04:31:38;;;;;;;18.10;7.07;;;1.50;99.90;;;;;;5032431;28;20084;-71
2022/02/26 04:34:04;;;;;;;20.95;7.35;;;1.50;99.90;;;;;;5032561;28;20497;-72
2022/02/26 04:36:30;;;;;;;17.20;6.82;;;1.50;99.90;;;;;;5032164;28;20120;-71
2022/02/26 04:38:55;;;;;;;24.20;7.97;;;1.50;99.90;;;;;;5032750;28;20447;-71
2022/02/26 04:41:21;;;;;;;17.92;7.75;;;1.50;99.90;;;;;;5031380;28;20105;-71
2022/02/26 04:43:47;;;;;;;21.77;7.72;;;1.40;99.90;;;;;;5025125;28;20095;-71
2022/02/26 04:46:13;;;;;;;18.58;7.10;;;1.40;99.90;;;;;;5014892;28;20025;-71
2022/02/26 04:48:39;;;;;;;18.52;7.03;;;1.30;99.90;;;;;;5031917;28;20044;-71
2022/02/26 04:51:08;;;;;;;26.45;7.68;;;1.20;99.90;;;;;;5032433;28;20435;-71
2022/02/26 04:53:35;;;;;;;26.60;7.55;;;1.20;99.90;;;;;;5032034;28;20022;-71
2022/02/26 04:56:00;;;;;;;28.13;7.40;;;1.20;99.90;;;;;;5032364;28;20462;-71
2022/02/26 04:58:26;;;;;;;17.60;7.40;;;1.30;99.90;;;;;;5032562;28;20032;-73
2022/02/26 05:00:52;;;;;;;23.95;8.20;;;1.30;99.90;;;;;;5032176;28;20030;-72
2022/02/26 05:03:17;;;;;;;19.08;7.65;;;1.30;99.90;;;;;;5031034;28;20489;-72
2022/02/26 05:05:43;;;;;;;26.67;8.07;;;1.30;99.90;;;;;;5031879;28;20134;-71
2022/02/26 05:08:08;;;;;;;19.48;7.55;;;1.40;99.90;;;;;;5031926;28;20067;-72
2022/02/26 05:10:34;;;;;;;21.27;7.22;;;1.40;99.90;;;;;;5031722;28;20378;-71
2022/02/26 05:13:00;;;;;;;19.05;6.70;;;1.40;99.90;;;;;;5031924;28;20040;-71
2022/02/26 05:15:26;;;;;;;24.05;7.35;;;1.50;99.90;;;;;;5032355;28;20518;-71
2022/02/26 05:17:52;;;;;;;21.58;7.22;;;1.50;99.90;;;;;;5031838;28;20037;-72
2022/02/26 05:20:17;;;;;;;19.75;7.03;;;1.50;99.90;;;;;;5032269;28;20060;-72
2022/02/26 05:22:43;;;;;;;21.83;7.18;;;1.50;99.90;;;;;;5037533;28;20026;-72
2022/02/26 05:25:10;;;;;;;21.48;8.00;;;1.60;99.90;;;;;;5033455;28;20087;-71
2022/02/26 05:27:37;;;;;;;22.85;6.80;;;1.60;99.90;;;;;;5032179;28;20030;-71
2022/02/26 05:30:05;;;;;;;14.30;6.30;;;1.70;99.90;;;;;;5034588;28;20033;-72
2022/02/26 05:32:30;;;;;;;23.38;8.40;;;1.70;99.90;;;;;;5035169;28;20080;-70
2022/02/26 05:34:56;;;;;;;26.13;7.40;;;1.70;99.90;;;;;;5031945;28;20033;-70
2022/02/26 05:37:23;;;;;;;20.27;7.53;;;1.80;99.90;;;;;;5032040;28;20070;-70
2022/02/26 05:39:48;;;;;;;16.83;6.70;;;1.80;99.90;;;;;;5028380;28;20120;-70
2022/02/26 05:42:15;;;;;;;21.95;7.47;;;1.80;99.90;;;;;;5031956;28;20073;-70
2022/02/26 05:44:41;;;;;;;18.17;7.35;;;1.80;99.90;;;;;;5017191;28;20022;-70
2022/02/26 05:47:07;;;;;;;28.20;8.15;;;1.80;99.90;;;;;;5029534;28;20475;-70
2022/02/26 05:49:33;;;;;;;19.25;8.55;;;1.80;99.90;;;;;;5031238;28;20593;-70
2022/02/26 05:51:59;;;;;;;15.02;6.10;;;1.70;99.90;;;;;;5031496;28;20104;-71
2022/02/26 05:54:25;;;;;;;21.08;7.50;;;1.70;99.90;;;;;;5035880;28;20026;-70
2022/02/26 05:56:51;;;;;;;21.05;7.38;;;1.60;99.90;;;;;;5035030;28;20378;-71
2022/02/26 05:59:16;;;;;;;16.05;7.05;;;1.60;99.90;;;;;;5035464;28;20045;-69
2022/02/26 06:01:42;;;;;;;21.38;8.85;;;1.50;99.90;;;;;;5035318;28;20426;-70
2022/02/26 06:04:08;;;;;;;25.20;9.10;;;1.50;99.90;;;;;;5035705;28;20057;-70
2022/02/26 06:06:34;;;;;;;22.27;8.88;;;1.50;99.90;;;;;;5034752;28;20030;-72
2022/02/26 06:08:59;;;;;;;19.02;8.05;;;1.50;99.90;;;;;;5035181;28;20037;-70
2022/02/26 06:11:25;;;;;;;20.30;8.70;;;1.50;99.90;;;;;;5034091;28;20033;-73
2022/02/26 06:13:52;;;;;;;19.38;8.68;;;1.50;99.90;;;;;;5034539;28;20108;-71
2022/02/26 06:16:18;;;;;;;25.52;9.82;;;1.50;99.90;;;;;;5035032;28;20479;-71
2022/02/26 06:18:44;;;;;;;23.92;9.38;;;1.50;99.90;;;;;;5034383;28;20041;-69
2022/02/26 06:21:10;;;;;;;22.15;9.52;;;1.60;99.90;;;;;;5034891;28;20029;-70
2022/02/26 06:23:36;;;;;;;23.67;9.30;;;1.60;99.90;;;;;;5034694;28;20364;-70
2022/02/26 06:26:01;;;;;;;21.02;9.25;;;1.70;99.90;;;;;;5035028;28;20030;-71
2022/02/26 06:28:27;;;;;;;24.42;9.43;;;1.80;99.90;;;;;;5035210;28;20482;-71
2022/02/26 06:30:53;;;;;;;20.60;9.05;;;1.90;99.90;;;;;;5034084;28;20033;-72
2022/02/26 06:33:19;;;;;;;22.85;10.10;;;1.90;99.90;;;;;;5035230;28;20463;-72
2022/02/26 06:35:44;;;;;;;19.83;8.95;;;1.80;99.90;;;;;;5034666;28;20030;-74
2022/02/26 06:38:11;;;;;;;27.38;10.27;;;1.80;99.90;;;;;;5035112;28;20037;-71
2022/02/26 06:40:37;;;;;;;30.88;9.60;;;1.70;99.90;;;;;;5034516;28;20382;-72
2022/02/26 06:43:03;;;;;;;26.55;9.00;;;1.80;99.90;;;;;;5033796;28;20025;-70
2022/02/26 06:45:29;;;;;;;28.00;9.52;;;2.10;99.90;;;;;;5015703;28;20377;-70
2022/02/26 06:47:55;;;;;;;24.80;9.07;;;2.10;99.90;;;;;;5014674;28;20034;-70
2022/02/26 06:50:20;;;;;;;24.23;8.85;;;2.10;99.90;;;;;;5015217;28;20022;-70
2022/02/26 06:52:46;;;;;;;22.90;9.00;;;2.10;99.90;;;;;;5029142;28;20064;-71
2022/02/26 06:55:12;;;;;;;21.95;9.23;;;2.10;99.90;;;;;;5034799;28;20022;-69
2022/02/26 06:57:38;;;;;;;25.13;8.68;;;2.10;99.90;;;;;;5033955;28;20080;-70
2022/02/26 07:00:05;;;;;;;18.55;7.88;;;2.20;99.90;;;;;;5034211;28;20505;-69
2022/02/26 07:02:31;;;;;;;22.33;8.13;;;2.20;99.90;;;;;;5034198;28;20034;-70
2022/02/26 07:04:57;;;;;;;16.15;8.30;;;2.30;99.90;;;;;;5033497;28;20029;-70
2022/02/26 07:07:23;;;;;;;22.73;8.45;;;2.30;99.90;;;;;;5034218;28;20099;-68
2022/02/26 07:09:49;;;;;;;16.50;7.65;;;2.20;99.90;;;;;;5033647;28;20025;-71
2022/02/26 07:12:16;;;;;;;24.63;8.77;;;2.20;99.90;;;;;;5033800;28;20025;-71
2022/02/26 07:14:43;;;;;;;21.13;8.65;;;2.30;99.90;;;;;;5033203;28;20459;-70
2022/02/26 07:17:09;;;;;;;21.50;8.63;;;2.20;99.90;;;;;;5033891;28;20025;-70
2022/02/26 07:19:34;;;;;;;20.85;8.60;;;2.20;99.90;;;;;;5033534;28;20474;-70
2022/02/26 07:22:00;;;;;;;17.98;8.05;;;2.30;99.90;;;;;;5034703;28;20107;-70
2022/02/26 07:24:27;;;;;;;21.10;8.77;;;2.30;99.90;;;;;;5035678;28;20025;-70
2022/02/26 07:26:53;;;;;;;24.75;9.82;;;2.40;99.90;;;;;;5035406;28;20365;-70
2022/02/26 07:29:18;;;;;;;19.95;8.10;;;2.40;99.90;;;;;;5037198;28;20030;-72
2022/02/26 07:31:44;;;;;;;22.90;8.52;;;2.40;99.90;;;;;;5044069;28;20033;-69
2022/02/26 07:34:10;;;;;;;19.65;7.93;;;2.50;99.90;;;;;;5040759;28;20029;-71
2022/02/26 07:36:36;;;;;;;25.88;8.23;;;2.50;99.90;;;;;;5037961;28;20033;-69
2022/02/26 07:39:04;;;;;;;23.38;7.82;;;2.50;99.90;;;;;;5034675;28;20041;-70
2022/02/26 07:41:30;;;;;;;25.88;8.82;;;2.50;99.90;;;;;;5034284;28;20017;-72
2022/02/26 07:43:55;;;;;;;24.13;8.88;;;2.60;99.90;;;;;;5025283;28;20492;-72
2022/02/26 07:46:21;;;;;;;25.08;8.80;;;2.70;99.90;;;;;;5014088;28;20030;-71
2022/02/26 07:48:47;;;;;;;21.33;9.00;;;2.80;99.90;;;;;;5013621;28;20030;-72
2022/02/26 07:51:13;;;;;;;20.88;8.55;;;2.90;99.90;;;;;;5033985;28;20029;-71
2022/02/26 07:53:39;;;;;;;24.63;9.20;;;2.90;99.90;;;;;;5032892;28;20017;-72
2022/02/26 07:56:05;;;;;;;19.85;7.40;;;3.00;99.90;;;;;;5033473;28;20025;-73
2022/02/26 07:58:31;;;;;;;25.33;8.73;;;3.10;99.90;;;;;;5033546;28;20104;-73
2022/02/26 08:00:57;;;;;;;20.48;8.55;;;3.10;99.90;;;;;;5032525;28;20132;-72
2022/02/26 08:03:23;;;;;;;25.50;9.48;;;3.20;99.90;;;;;;5033472;28;20044;-72
2022/02/26 08:05:48;;;;;;;23.15;8.25;;;3.40;99.90;;;;;;5032736;28;20431;-71
2022/02/26 08:08:15;;;;;;;19.75;8.25;;;3.50;99.90;;;;;;5032087;28;20409;-71
2022/02/26 08:10:41;;;;;;;24.08;9.18;;;3.50;99.90;;;;;;5029846;28;20021;-73
2022/02/26 08:13:06;;;;;;;18.75;8.38;;;3.60;99.90;;;;;;5031409;28;20374;-72
2022/02/26 08:15:32;;;;;;;20.02;7.80;;;3.60;99.90;;;;;;5031919;28;20045;-72
2022/02/26 08:17:58;;;;;;;18.73;8.52;;;3.70;99.90;;;;;;5032386;28;20033;-72
2022/02/26 08:20:25;;;;;;;22.45;8.43;;;3.70;99.90;;;;;;5032960;28;20124;-73
2022/02/26 08:22:52;;;;;;;19.25;8.13;;;3.80;99.90;;;;;;5032241;28;20025;-72
2022/02/26 08:25:18;;;;;;;23.00;8.65;;;3.80;99.90;;;;;;5032859;28;20025;-73
2022/02/26 08:27:44;;;;;;;20.20;7.78;;;3.90;99.90;;;;;;5032232;28;20028;-71
2022/02/26 08:30:13;;;;;;;18.95;7.20;;;4.00;99.90;;;;;;5033800;28;20109;-73
2022/02/26 08:32:40;;;;;;;18.47;7.63;;;4.10;99.90;;;;;;5032256;28;20493;-71
2022/02/26 08:35:08;;;;;;;18.05;7.15;;;4.10;99.90;;;;;;5033336;28;20264;-70
2022/02/26 08:37:34;;;;;;;19.60;8.13;;;4.10;99.90;;;;;;5032420;28;20074;-69
2022/02/26 08:40:00;;;;;;;18.55;7.05;;;4.20;99.90;;;;;;5031954;28;20446;-70
2022/02/26 08:42:26;;;;;;;22.02;8.65;;;4.20;99.90;;;;;;5032640;28;20021;-71
2022/02/26 08:44:53;;;;;;;18.15;7.82;;;4.20;99.90;;;;;;5025941;28;20124;-71
2022/02/26 08:47:20;;;;;;;20.08;8.05;;;4.10;99.90;;;;;;5029936;28;20065;-72
2022/02/26 08:49:46;;;;;;;25.45;8.50;;;4.10;99.90;;;;;;5031493;28;20029;-72
2022/02/26 08:52:13;;;;;;;17.23;7.45;;;4.20;99.90;;;;;;5024824;28;20087;-71
2022/02/26 08:54:39;;;;;;;24.40;9.98;;;4.30;99.90;;;;;;5019069;28;20029;-71
2022/02/26 08:57:04;;;;;;;27.15;9.50;;;4.30;99.90;;;;;;5023216;28;20025;-75
2022/02/26 08:59:31;;;;;;;20.80;8.68;;;4.30;99.90;;;;;;5024425;28;20057;-74
2022/02/26 09:01:57;;;;;;;23.25;8.98;;;4.40;99.90;;;;;;5020784;28;20073;-73
2022/02/26 09:04:23;;;;;;;18.65;8.23;;;4.60;99.90;;;;;;5026075;28;20036;-73
2022/02/26 09:06:49;;;;;;;15.65;7.55;;;4.70;99.90;;;;;;5031773;28;20101;-73
2022/02/26 09:09:15;;;;;;;18.08;8.00;;;4.70;99.90;;;;;;5031393;28;20095;-73
2022/02/26 09:11:42;;;;;;;24.13;7.57;;;4.90;99.90;;;;;;5032463;28;20467;-73
2022/02/26 09:14:08;;;;;;;18.45;7.70;;;5.00;99.90;;;;;;5029412;28;20027;-73
2022/02/26 09:16:34;;;;;;;20.42;6.53;;;4.80;99.90;;;;;;5023546;28;20473;-73
2022/02/26 09:19:00;;;;;;;21.25;5.85;;;4.90;99.90;;;;;;5022779;28;20097;-75
2022/02/26 09:21:26;;;;;;;15.98;6.68;;;4.80;99.90;;;;;;5021556;28;20087;-73
2022/02/26 09:23:52;;;;;;;17.70;6.32;;;4.70;99.90;;;;;;5024363;28;20025;-74
2022/02/26 09:26:18;;;;;;;13.68;5.97;;;4.70;99.90;;;;;;5023747;28;20030;-74
2022/02/26 09:28:44;;;;;;;18.88;6.78;;;4.70;99.90;;;;;;5027115;28;20460;-75
2022/02/26 09:31:11;;;;;;;17.33;7.25;;;4.60;99.90;;;;;;5026764;28;20030;-73
2022/02/26 09:33:37;;;;;;;18.73;7.22;;;4.60;99.90;;;;;;5027632;28;20052;-73
2022/02/26 09:36:04;;;;;;;18.90;7.85;;;4.60;99.90;;;;;;5034645;28;20025;-73
2022/02/26 09:38:30;;;;;;;13.13;7.35;;;4.50;99.90;;;;;;5035061;28;20441;-74
2022/02/26 09:40:57;;;;;;;15.85;6.90;;;4.60;99.90;;;;;;5031891;28;20108;-75
2022/02/26 09:43:24;;;;;;;20.08;7.57;;;4.60;99.90;;;;;;5027413;28;20159;-76
2022/02/26 09:45:51;;;;;;;14.65;5.95;;;4.90;99.90;;;;;;5027636;28;20394;-73
2022/02/26 09:48:17;;;;;;;18.80;5.95;;;5.10;99.90;;;;;;5026917;28;20060;-73
2022/02/26 09:50:44;;;;;;;12.80;4.15;;;5.40;99.90;;;;;;5023068;28;20472;-74
2022/02/26 09:53:11;;;;;;;12.10;3.38;;;5.60;99.90;;;;;;5026584;28;20383;-73
2022/02/26 09:55:38;;;;;;;11.80;4.05;;;5.80;95.10;;;;;;5028186;28;20030;-73
2022/02/26 09:58:04;;;;;;;12.45;3.58;;;5.90;94.40;;;;;;5025731;28;20018;-72
2022/02/26 10:00:30;;;;;;;9.65;2.40;;;6.20;93.10;;;;;;5026632;28;20498;-72
2022/02/26 10:02:56;;;;;;;9.55;2.17;;;6.30;83.90;;;;;;5024685;28;20043;-73
2022/02/26 10:05:21;;;;;;;12.95;1.80;;;6.50;83.00;;;;;;5027802;28;20029;-73
2022/02/26 10:07:50;;;;;;;10.30;1.75;;;6.70;74.40;;;;;;5025517;28;20144;-73
2022/02/26 10:10:21;;;;;;;13.90;1.75;;;6.80;73.50;;;;;;5027567;28;20042;-75
2022/02/26 10:12:55;;;;;;;8.18;1.50;;;6.80;70.50;;;;;;5026269;28;20037;-72
2022/02/26 10:15:25;;;;;;;8.38;1.33;;;6.70;66.30;;;;;;5017914;28;20046;-73
2022/02/26 10:18:02;;;;;;;;;;;6.40;67.80;;;;;;5030899;28;20152;-75
2022/02/26 10:20:28;;;;;;;7.40;1.20;;;6.30;68.40;;;;;;5037998;28;20008;-79
2022/02/26 10:22:55;;;;;;;12.68;1.52;;;6.30;66.60;;;;;;5037289;28;20117;-74
2022/02/26 10:25:30;;;;;;;6.70;1.27;;;6.20;66.20;;;;;;5033052;28;20113;-72
2022/02/26 10:27:58;;;;;;;8.07;1.67;;;6.30;65.70;;;;;;5031785;28;20029;-74
2022/02/26 10:30:34;;;;;;;4.22;1.10;;;6.20;66.00;;;;;;5038379;28;20034;-74
2022/02/26 10:33:17;;;;;;;3.80;1.40;;;6.20;66.10;;;;;;5020457;28;20033;-73
2022/02/26 10:35:45;;;;;;;5.13;1.30;;;6.30;66.40;;;;;;5037254;28;20022;-72
2022/02/26 10:38:20;;;;;;;5.30;1.30;;;6.30;67.70;;;;;;5036907;28;20053;-73
2022/02/26 10:40:51;;;;;;;9.88;1.20;;;6.50;68.00;;;;;;5033784;28;20044;-73
2022/02/26 10:43:37;;;;;;;8.85;2.53;;;6.60;67.60;;;;;;5031085;28;20088;-73
2022/02/26 10:46:22;;;;;;;9.55;2.00;;;6.80;68.60;;;;;;5027279;28;20029;-73
2022/02/26 10:48:50;;;;;;;8.00;1.92;;;7.00;68.50;;;;;;5033878;28;20045;-74
2022/02/26 10:51:34;;;;;;;8.15;2.63;;;7.20;69.60;;;;;;5034289;28;20156;-74
2022/02/26 10:54:02;;;;;;;12.07;2.80;;;7.30;70.10;;;;;;5033819;28;20467;-75
2022/02/26 10:56:49;;;;;;;8.77;2.95;;;7.30;72.30;;;;;;5033697;28;20389;-75
2022/02/26 10:59:32;;;;;;;15.88;3.10;;;7.10;73.70;;;;;;5034047;28;20103;-75
2022/02/26 11:02:04;;;;;;;14.25;3.10;;;6.80;75.00;;;;;;5031757;28;20057;-73
2022/02/26 11:04:30;;;;;;;11.55;2.90;;;6.60;76.00;;;;;;5033572;28;20033;-72
2022/02/26 11:06:56;;;;;;;11.15;2.75;;;6.30;77.00;;;;;;5013789;28;20021;-75
2022/02/26 11:09:23;;;;;;;10.35;2.90;;;6.10;78.00;;;;;;5030073;28;20025;-78
2022/02/26 11:11:50;;;;;;;13.43;2.80;;;5.90;79.00;;;;;;5033838;28;20553;-85
2022/02/26 11:14:19;;;;;;;10.60;3.17;;;5.70;80.50;;;;;;5034127;28;20046;-76
2022/02/26 11:16:47;;;;;;;14.68;2.83;;;5.60;81.80;;;;;;5033520;28;20025;-78
2022/02/26 11:19:14;;;;;;;10.07;3.05;;;5.50;85.30;;;;;;5033477;28;20037;-75
2022/02/26 11:21:41;;;;;;;14.90;3.22;;;5.40;86.00;;;;;;5033212;28;20050;-79
2022/02/26 11:24:08;;;;;;;12.80;3.15;;;5.40;86.80;;;;;;5033545;28;20030;-78
2022/02/26 11:26:35;;;;;;;13.57;2.88;;;5.40;88.10;;;;;;5034211;28;20052;-79
2022/02/26 11:29:05;;;;;;;9.88;2.65;;;5.50;85.90;;;;;;5033382;28;20387;-78
2022/02/26 11:31:51;;;;;;;14.48;2.72;;;5.60;86.70;;;;;;5034012;28;20059;-78
2022/02/26 11:34:27;;;;;;;11.20;2.53;;;5.70;86.10;;;;;;5032418;28;20045;-78
2022/02/26 11:37:02;;;;;;;11.93;2.80;;;5.90;85.50;;;;;;5033647;28;20383;-78
2022/02/26 11:39:49;;;;;;;12.07;2.50;;;6.10;79.50;;;;;;5033798;28;20394;-77
2022/02/26 11:42:24;;;;;;;10.05;2.42;;;6.20;76.60;;;;;;5034403;28;20120;-78
2022/02/26 11:44:57;;;;;;;7.88;1.92;;;6.40;74.90;;;;;;5025778;28;20032;-79
2022/02/26 11:47:31;;;;;;;9.30;2.40;;;6.50;72.60;;;;;;5033633;28;20465;-78
2022/02/26 11:50:19;;;;;;;9.43;2.47;;;6.60;72.80;;;;;;5034495;28;20177;-78
2022/02/26 11:52:53;;;;;;;8.63;2.47;;;6.80;71.90;;;;;;5037814;28;20490;-77
2022/02/26 11:55:31;;;;;;;10.30;2.60;;;6.90;70.80;;;;;;5044987;28;20013;-76
2022/02/26 11:58:19;;;;;;;9.90;2.22;;;6.80;71.60;;;;;;5056143;28;20017;-76
2022/02/26 12:00:52;;;;;;;10.38;2.22;;;6.70;71.90;;;;;;5034455;28;20049;-75
2022/02/26 12:03:31;;;;;;;9.48;2.28;;;6.60;70.40;;;;;;5035602;28;20049;-79
2022/02/26 12:06:27;;;;;;;10.52;2.75;;;6.50;71.80;;;;;;5034670;28;20029;-79
2022/02/26 12:08:52;;;;;;;12.18;2.28;;;6.50;72.10;;;;;;5014379;28;20474;-78
2022/02/26 12:11:21;;;;;;;10.65;2.70;;;6.40;73.80;;;;;;5017872;28;20034;-79
2022/02/26 12:13:49;;;;;;;9.30;1.98;;;6.40;72.80;;;;;;5032729;28;20025;-79
2022/02/26 12:16:22;;;;;;;13.70;2.20;;;6.20;72.50;;;;;;5032744;28;20071;-79
2022/02/26 12:18:53;;;;;;;11.18;2.75;;;6.30;72.40;;;;;;5032849;28;20038;-78
2022/02/26 12:21:19;;;;;;;13.65;2.88;;;6.30;73.10;;;;;;5033048;28;20026;-79
2022/02/26 12:24:16;;;;;;;11.77;2.40;;;6.30;72.40;;;;;;5031744;28;20025;-78
2022/02/26 12:27:02;;;;;;;10.95;2.53;;;6.30;72.50;;;;;;5013531;28;20029;-79
2022/02/26 12:29:40;;;;;;;12.75;2.67;;;6.70;70.60;;;;;;5024209;28;20044;-80
2022/02/26 12:32:16;;;;;;;12.07;2.88;;;7.90;68.10;;;;;;5030243;28;20033;-80
2022/02/26 12:34:48;;;;;;;9.85;2.30;;;7.90;68.30;;;;;;5032494;28;20022;-79
2022/02/26 12:37:28;;;;;;;11.77;2.42;;;8.30;66.70;;;;;;5032627;28;20037;-80
2022/02/26 12:40:09;;;;;;;6.90;1.80;;;8.70;64.90;;;;;;5031975;28;20037;-80
2022/02/26 12:42:44;;;;;;;12.60;2.50;;;9.30;63.40;;;;;;5031221;28;20119;-80
2022/02/26 12:45:15;;;;;;;8.70;1.85;;;9.40;62.20;;;;;;5031801;28;20191;-79
2022/02/26 12:47:41;;;;;;;10.30;1.80;;;9.20;62.20;;;;;;5032555;28;20091;-78
2022/02/26 12:50:10;;;;;;;8.43;1.95;;;9.00;62.70;;;;;;5031041;28;20475;-80
2022/02/26 12:52:38;;;;;;;7.88;2.15;;;8.90;62.30;;;;;;5032383;28;20030;-79